| time (UTC) | temp F | wind direction | speed knots | gust knots | rain 1hr in | rain 24hr in | rain mn in | humidity % | barometer mb |
| 20260505124520 | 49 | 95 | 4.3 | 7.0 | 0.00 | 0.00 | 0.00 | 64 | 1009.3 |
| 20260505123919 | 52 | 129 | 4.3 | 7.0 | 0.00 | 0.00 | 0.00 | 63 | 1009.2 |
| 20260505123320 | 51 | 141 | 4.3 | 7.0 | 0.00 | 0.00 | 0.00 | 64 | 1009.1 |
| 20260505122719 | 51 | 143 | 3.5 | 7.8 | 0.00 | 0.00 | 0.00 | 65 | 1009.1 |
| 20260505122119 | 51 | 166 | 3.5 | 6.1 | 0.00 | 0.00 | 0.00 | 65 | 1008.9 |
| 20260505121519 | 50 | 171 | 3.5 | 5.2 | 0.00 | 0.00 | 0.00 | 67 | 1008.8 |
| 20260505120919 | 50 | 120 | 2.6 | 5.2 | 0.00 | 0.00 | 0.00 | 65 | 1008.8 |
| 20260505120320 | 50 | 161 | 3.5 | 7.0 | 0.00 | 0.00 | 0.00 | 65 | 1008.8 |
| 20260505115719 | 50 | 154 | 5.2 | 7.8 | 0.00 | 0.00 | 0.00 | 67 | 1008.7 |
| 20260505115119 | 49 | 161 | 5.2 | 8.7 | 0.00 | 0.00 | 0.00 | 68 | 1008.7 |
| 20260505114520 | 50 | 134 | 6.1 | 9.6 | 0.00 | 0.00 | 0.00 | 65 | 1008.7 |
| 20260505113919 | 50 | 164 | 7.0 | 10.4 | 0.00 | 0.00 | 0.00 | 65 | 1008.6 |
| 20260505113319 | 51 | 159 | 7.0 | 10.4 | 0.00 | 0.00 | 0.00 | 63 | 1008.3 |
| 20260505112718 | 52 | 162 | 7.0 | 9.6 | 0.00 | 0.00 | 0.00 | 62 | 1008.3 |
| 20260505112120 | 52 | 161 | 2.6 | 5.2 | 0.00 | 0.00 | 0.00 | 63 | 1008.1 |
| 20260505111520 | 52 | 134 | 2.6 | 6.1 | 0.00 | 0.00 | 0.00 | 62 | 1008.1 |
| 20260505110919 | 52 | 150 | 4.3 | 6.1 | 0.00 | 0.00 | 0.00 | 62 | 1008.1 |
| 20260505110320 | 52 | 171 | 2.6 | 7.0 | 0.00 | 0.00 | 0.00 | 61 | 1008.0 |
| 20260505102120 | 54 | 251 | 0.9 | 2.6 | 0.00 | 0.00 | 0.00 | 58 | 1007.4 |
| 20260505101519 | 54 | 253 | 0.9 | 2.6 | 0.00 | 0.00 | 0.00 | 57 | 1007.4 |
| 20260505100919 | 54 | 0 | 0.0 | 3.5 | 0.00 | 0.00 | 0.00 | 56 | 1007.2 |
| 20260505100319 | 54 | 256 | 1.7 | 3.5 | 0.00 | 0.00 | 0.00 | 56 | 1007.0 |
| 20260505095720 | 55 | 260 | 0.9 | 3.5 | 0.00 | 0.00 | 0.00 | 55 | 1007.0 |
| 20260505095120 | 55 | 263 | 1.7 | 5.2 | 0.00 | 0.00 | 0.00 | 55 | 1007.0 |
| 20260505094519 | 56 | 266 | 2.6 | 5.2 | 0.00 | 0.00 | 0.00 | 54 | 1006.8 |
| 20260505093919 | 55 | 268 | 2.6 | 3.5 | 0.00 | 0.00 | 0.00 | 55 | 1006.8 |
| 20260505093319 | 56 | 286 | 0.9 | 4.3 | 0.00 | 0.00 | 0.00 | 54 | 1006.8 |
| 20260505092719 | 56 | 307 | 2.6 | 6.1 | 0.00 | 0.00 | 0.00 | 54 | 1006.6 |
| 20260505092119 | 56 | 286 | 0.9 | 6.1 | 0.00 | 0.00 | 0.00 | 54 | 1006.5 |
| 20260505091519 | 56 | 333 | 1.7 | 7.0 | 0.00 | 0.00 | 0.00 | 53 | 1006.5 |
| 20260505090919 | 56 | 305 | 4.3 | 7.0 | 0.00 | 0.00 | 0.00 | 54 | 1006.5 |
| 20260505090352 | 55 | 345 | 1.7 | 3.5 | 0.00 | 0.00 | 0.00 | 56 | 1006.5 |
| 20260505090320 | 55 | 345 | 1.7 | 3.5 | 0.00 | 0.00 | 0.00 | 56 | 1006.5 |
| 20260505085719 | 56 | 102 | 1.7 | 5.2 | 0.00 | 0.00 | 0.00 | 54 | 1006.7 |
| 20260505085119 | 57 | 0 | 0.0 | 5.2 | 0.00 | 0.00 | 0.00 | 54 | 1006.8 |
| 20260505084519 | 56 | 76 | 2.6 | 5.2 | 0.00 | 0.00 | 0.00 | 54 | 1006.7 |
| 20260505083918 | 56 | 0 | 0.0 | 4.3 | 0.00 | 0.00 | 0.00 | 54 | 1006.5 |
| 20260505083319 | 56 | 330 | 1.7 | 3.5 | 0.00 | 0.00 | 0.00 | 55 | 1006.2 |
| 20260505082720 | 56 | 0 | 0.0 | 2.6 | 0.00 | 0.00 | 0.00 | 55 | 1006.0 |
| 20260505082120 | 55 | 0 | 0.0 | 4.3 | 0.00 | 0.00 | 0.00 | 56 | 1006.1 |
| 20260505081519 | 55 | 320 | 0.9 | 4.3 | 0.00 | 0.00 | 0.00 | 57 | 1006.0 |
| 20260505080919 | 55 | 332 | 1.7 | 7.0 | 0.00 | 0.00 | 0.00 | 57 | 1006.0 |
| 20260505080319 | 55 | 317 | 1.7 | 7.0 | 0.00 | 0.00 | 0.00 | 57 | 1006.0 |
| 20260505075719 | 54 | 248 | 1.7 | 3.5 | 0.00 | 0.00 | 0.00 | 57 | 1006.0 |
| 20260505075118 | 55 | 0 | 0.0 | 2.6 | 0.00 | 0.00 | 0.00 | 57 | 1005.9 |
| 20260505074519 | 56 | 242 | 0.9 | 4.3 | 0.00 | 0.00 | 0.00 | 55 | 1006.0 |
| 20260505073919 | 57 | 253 | 2.6 | 4.3 | 0.00 | 0.00 | 0.00 | 53 | 1005.8 |
| 20260505073320 | 57 | 274 | 2.6 | 3.5 | 0.00 | 0.00 | 0.00 | 52 | 1005.7 |
| 20260505072720 | 58 | 301 | 1.7 | 4.3 | 0.00 | 0.00 | 0.00 | 52 | 1005.8 |
| 20260505072120 | 57 | 284 | 1.7 | 4.3 | 0.00 | 0.00 | 0.00 | 52 | 1005.6 |
| 20260505071519 | 57 | 195 | 1.7 | 3.5 | 0.00 | 0.00 | 0.00 | 52 | 1005.6 |
| 20260505070319 | 58 | 293 | 0.9 | 4.3 | 0.00 | 0.00 | 0.00 | 50 | 1005.6 |
| 20260505065718 | 59 | 295 | 1.7 | 6.1 | 0.00 | 0.00 | 0.00 | 49 | 1005.3 |
| 20260505065119 | 60 | 295 | 3.5 | 7.8 | 0.00 | 0.00 | 0.00 | 47 | 1005.3 |
| 20260505064520 | 60 | 309 | 5.2 | 8.7 | 0.00 | 0.00 | 0.00 | 47 | 1005.2 |
| 20260505063920 | 60 | 315 | 6.1 | 8.7 | 0.00 | 0.00 | 0.00 | 47 | 1005.2 |
| 20260505063319 | 60 | 324 | 5.2 | 7.8 | 0.00 | 0.00 | 0.00 | 47 | 1005.3 |
| 20260505062719 | 60 | 303 | 6.1 | 7.8 | 0.00 | 0.00 | 0.00 | 47 | 1005.3 |
| 20260505062119 | 61 | 297 | 6.1 | 8.7 | 0.00 | 0.00 | 0.00 | 45 | 1005.4 |
| 20260505061518 | 61 | 299 | 6.1 | 7.8 | 0.00 | 0.00 | 0.00 | 44 | 1005.4 |
| 20260505060919 | 61 | 281 | 4.3 | 7.8 | 0.00 | 0.00 | 0.00 | 45 | 1005.3 |
| 20260505060319 | 60 | 198 | 3.5 | 7.8 | 0.00 | 0.00 | 0.00 | 46 | 1005.2 |
| 20260505055719 | 61 | 162 | 5.2 | 7.8 | 0.00 | 0.00 | 0.00 | 44 | 1005.2 |
| 20260505055118 | 62 | 0 | 0.0 | 4.3 | 0.00 | 0.00 | 0.00 | 42 | 1005.2 |
| 20260505054519 | 63 | 345 | 2.6 | 8.7 | 0.00 | 0.00 | 0.00 | 42 | 1005.2 |
| 20260505053319 | 64 | 331 | 5.2 | 11.3 | 0.00 | 0.00 | 0.00 | 40 | 1005.2 |
| 20260505052119 | 63 | 43 | 3.5 | 7.0 | 0.00 | 0.00 | 0.00 | 41 | 1005.3 |
| 20260505051518 | 64 | 346 | 3.5 | 7.8 | 0.00 | 0.00 | 0.00 | 39 | 1005.2 |
| 20260505050919 | 63 | 340 | 4.3 | 8.7 | 0.00 | 0.00 | 0.00 | 41 | 1005.0 |
| 20260505050319 | 64 | 15 | 6.1 | 12.2 | 0.00 | 0.00 | 0.00 | 39 | 1005.1 |
| 20260505041518 | 68 | 339 | 8.7 | 12.2 | 0.00 | 0.00 | 0.00 | 34 | 1005.0 |
| 20260505040919 | 68 | 344 | 8.7 | 12.2 | 0.00 | 0.00 | 0.00 | 33 | 1005.1 |
| 20260505040319 | 68 | 339 | 7.8 | 13.0 | 0.00 | 0.00 | 0.00 | 33 | 1005.0 |
| 20260505035718 | 69 | 336 | 8.7 | 13.0 | 0.00 | 0.00 | 0.00 | 33 | 1005.0 |
| 20260505035119 | 69 | 336 | 9.6 | 13.0 | 0.00 | 0.00 | 0.00 | 33 | 1004.9 |
| 20260505034519 | 69 | 337 | 9.6 | 13.9 | 0.00 | 0.00 | 0.00 | 33 | 1004.9 |
| 20260505033918 | 70 | 334 | 11.3 | 14.8 | 0.00 | 0.00 | 0.00 | 32 | 1004.8 |
| 20260505033319 | 69 | 337 | 11.3 | 14.8 | 0.00 | 0.00 | 0.00 | 33 | 1004.8 |
| 20260505032719 | 69 | 332 | 10.4 | 13.9 | 0.00 | 0.00 | 0.00 | 33 | 1004.9 |
| 20260505032118 | 69 | 329 | 9.6 | 12.2 | 0.00 | 0.00 | 0.00 | 34 | 1004.7 |
| 20260505031518 | 70 | 332 | 9.6 | 13.9 | 0.00 | 0.00 | 0.00 | 34 | 1004.6 |
| 20260505030919 | 70 | 335 | 11.3 | 15.6 | 0.00 | 0.00 | 0.00 | 33 | 1004.6 |
| 20260505030319 | 70 | 330 | 10.4 | 15.6 | 0.00 | 0.00 | 0.00 | 33 | 1004.5 |
| 20260505025718 | 69 | 338 | 10.4 | 14.8 | 0.00 | 0.00 | 0.00 | 36 | 1004.6 |
| 20260505025119 | 70 | 329 | 8.7 | 11.3 | 0.00 | 0.00 | 0.00 | 36 | 1004.5 |
| 20260505024518 | 71 | 334 | 8.7 | 13.0 | 0.00 | 0.00 | 0.00 | 35 | 1004.5 |
| 20260505023919 | 72 | 334 | 7.8 | 13.0 | 0.00 | 0.00 | 0.00 | 34 | 1004.5 |
| 20260505023319 | 72 | 326 | 9.6 | 13.0 | 0.00 | 0.00 | 0.00 | 32 | 1004.3 |
| 20260505022718 | 73 | 326 | 9.6 | 13.9 | 0.00 | 0.00 | 0.00 | 32 | 1004.3 |
| 20260505022119 | 73 | 322 | 8.7 | 16.5 | 0.00 | 0.00 | 0.00 | 32 | 1004.4 |
| 20260505021519 | 74 | 325 | 10.4 | 16.5 | 0.00 | 0.00 | 0.00 | 31 | 1004.3 |
| 20260505021014 | 74 | 325 | 11.3 | 17.4 | 0.00 | 0.00 | 0.00 | 30 | 1004.4 |
| 20260505020919 | 74 | 325 | 11.3 | 17.4 | 0.00 | 0.00 | 0.00 | 30 | 1004.4 |
| 20260505020319 | 75 | 322 | 12.2 | 18.2 | 0.00 | 0.00 | 0.00 | 29 | 1004.5 |
| 20260505015802 | 75 | 320 | 12.2 | 17.4 | 0.00 | 0.00 | 0.00 | 29 | 1004.4 |
| 20260505015719 | 75 | 320 | 12.2 | 17.4 | 0.00 | 0.00 | 0.00 | 29 | 1004.4 |
| 20260505015118 | 75 | 328 | 12.2 | 15.6 | 0.00 | 0.00 | 0.00 | 28 | 1004.4 |
| 20260505014519 | 75 | 327 | 11.3 | 17.4 | 0.00 | 0.00 | 0.00 | 28 | 1004.4 |
| 20260505013919 | 76 | 322 | 13.0 | 20.0 | 0.00 | 0.00 | 0.00 | 27 | 1004.4 |
| 20260505013319 | 76 | 322 | 12.2 | 19.1 | 0.00 | 0.00 | 0.00 | 26 | 1004.5 |
| 20260505012719 | 76 | 315 | 13.9 | 19.1 | 0.00 | 0.00 | 0.00 | 25 | 1004.5 |
| 20260505012119 | 77 | 319 | 12.2 | 17.4 | 0.00 | 0.00 | 0.00 | 24 | 1004.6 |
| 20260505011551 | 77 | 320 | 13.0 | 19.1 | 0.00 | 0.00 | 0.00 | 23 | 1004.6 |
| 20260505011519 | 77 | 320 | 13.0 | 19.1 | 0.00 | 0.00 | 0.00 | 23 | 1004.6 |
| 20260505010918 | 77 | 321 | 13.0 | 19.1 | 0.00 | 0.00 | 0.00 | 23 | 1004.7 |
| 20260505010319 | 77 | 317 | 12.2 | 20.0 | 0.00 | 0.00 | 0.00 | 22 | 1004.7 |
| 20260505005718 | 77 | 323 | 13.9 | 20.0 | 0.00 | 0.00 | 0.00 | 22 | 1004.8 |
| 20260505005119 | 78 | 341 | 12.2 | 18.2 | 0.00 | 0.00 | 0.00 | 23 | 1004.9 |
| 20260505004739 | 78 | 319 | 13.9 | 20.0 | 0.00 | 0.00 | 0.00 | 21 | 1004.9 |
| 20260505004519 | 78 | 319 | 13.9 | 20.0 | 0.00 | 0.00 | 0.00 | 21 | 1004.9 |
| 20260505003918 | 78 | 317 | 13.9 | 19.1 | 0.00 | 0.00 | 0.00 | 23 | 1004.9 |
| 20260505003319 | 78 | 324 | 13.9 | 20.0 | 0.00 | 0.00 | 0.00 | 22 | 1004.9 |
| 20260505002719 | 78 | 323 | 13.0 | 20.0 | 0.00 | 0.00 | 0.00 | 22 | 1005.1 |
| 20260505002118 | 78 | 320 | 13.0 | 20.0 | 0.00 | 0.00 | 0.00 | 22 | 1005.0 |
| 20260505001519 | 78 | 317 | 13.0 | 19.1 | 0.00 | 0.00 | 0.00 | 24 | 1005.1 |
| 20260505000919 | 78 | 329 | 13.0 | 20.0 | 0.00 | 0.00 | 0.00 | 25 | 1005.1 |
| 20260505000318 | 78 | 321 | 14.8 | 18.2 | 0.00 | 0.00 | 0.00 | 25 | 1005.2 |
| 20260504235719 | 78 | 328 | 13.0 | 17.4 | 0.00 | 0.00 | 0.00 | 26 | 1005.3 |
| 20260504235119 | 77 | 317 | 10.4 | 18.2 | 0.00 | 0.00 | 0.00 | 25 | 1005.2 |
| 20260504234518 | 77 | 333 | 13.0 | 18.2 | 0.00 | 0.00 | 0.00 | 26 | 1005.4 |
| 20260504233919 | 77 | 335 | 10.4 | 19.1 | 0.00 | 0.00 | 0.00 | 28 | 1005.5 |
| 20260504233319 | 77 | 337 | 12.2 | 19.1 | 0.00 | 0.00 | 0.00 | 27 | 1005.5 |
| 20260504232718 | 77 | 322 | 11.3 | 18.2 | 0.00 | 0.00 | 0.00 | 27 | 1005.6 |
| 20260504232119 | 77 | 316 | 13.0 | 18.2 | 0.00 | 0.00 | 0.00 | 26 | 1005.7 |
| 20260504231519 | 77 | 323 | 11.3 | 15.6 | 0.00 | 0.00 | 0.00 | 27 | 1005.8 |
| 20260504230918 | 77 | 331 | 9.6 | 13.9 | 0.00 | 0.00 | 0.00 | 28 | 1005.8 |
| 20260504230319 | 77 | 352 | 9.6 | 13.9 | 0.00 | 0.00 | 0.00 | 27 | 1005.9 |
| 20260504225718 | 77 | 315 | 6.1 | 16.5 | 0.00 | 0.00 | 0.00 | 30 | 1006.0 |
| 20260504225119 | 77 | 299 | 12.2 | 15.6 | 0.00 | 0.00 | 0.00 | 28 | 1006.0 |
| 20260504224554 | 76 | 327 | 7.8 | 16.5 | 0.00 | 0.00 | 0.00 | 27 | 1006.0 |
| 20260504224519 | 76 | 327 | 7.8 | 16.5 | 0.00 | 0.00 | 0.00 | 27 | 1006.0 |
| 20260504223918 | 77 | 322 | 8.7 | 13.9 | 0.00 | 0.00 | 0.00 | 27 | 1006.1 |
| 20260504223403 | 76 | 319 | 9.6 | 14.8 | 0.00 | 0.00 | 0.00 | 28 | 1006.3 |
| 20260504223319 | 76 | 319 | 9.6 | 14.8 | 0.00 | 0.00 | 0.00 | 28 | 1006.3 |
| 20260504222718 | 76 | 329 | 12.2 | 22.6 | 0.00 | 0.00 | 0.00 | 28 | 1006.3 |
| 20260504222118 | 76 | 318 | 12.2 | 22.6 | 0.00 | 0.00 | 0.00 | 31 | 1006.5 |
| 20260504221519 | 76 | 305 | 7.8 | 16.5 | 0.00 | 0.00 | 0.00 | 30 | 1006.6 |
| 20260504220918 | 75 | 347 | 12.2 | 16.5 | 0.00 | 0.00 | 0.00 | 27 | 1006.8 |
| 20260504220318 | 75 | 296 | 8.7 | 17.4 | 0.00 | 0.00 | 0.00 | 28 | 1006.9 |
| 20260504215719 | 75 | 304 | 12.2 | 17.4 | 0.00 | 0.00 | 0.00 | 27 | 1007.0 |
| 20260504215118 | 75 | 320 | 6.1 | 13.9 | 0.00 | 0.00 | 0.00 | 29 | 1006.9 |
| 20260504214519 | 75 | 318 | 8.7 | 14.8 | 0.00 | 0.00 | 0.00 | 29 | 1007.1 |
| 20260504213919 | 74 | 298 | 12.2 | 14.8 | 0.00 | 0.00 | 0.00 | 30 | 1007.0 |
| 20260504213318 | 74 | 332 | 9.6 | 15.6 | 0.00 | 0.00 | 0.00 | 29 | 1007.3 |
| 20260504212718 | 74 | 308 | 11.3 | 15.6 | 0.00 | 0.00 | 0.00 | 32 | 1007.4 |
| 20260504212119 | 74 | 308 | 7.8 | 14.8 | 0.00 | 0.00 | 0.00 | 32 | 1007.4 |
| 20260504211518 | 74 | 334 | 10.4 | 15.6 | 0.00 | 0.00 | 0.00 | 28 | 1007.5 |
| 20260504210918 | 74 | 340 | 11.3 | 15.6 | 0.00 | 0.00 | 0.00 | 29 | 1007.7 |
| 20260504210319 | 74 | 325 | 7.0 | 16.5 | 0.00 | 0.00 | 0.00 | 33 | 1007.7 |
| 20260504205718 | 74 | 333 | 10.4 | 16.5 | 0.00 | 0.00 | 0.00 | 32 | 1007.8 |
| 20260504205118 | 74 | 310 | 10.4 | 15.6 | 0.00 | 0.00 | 0.00 | 32 | 1007.9 |
| 20260504204518 | 73 | 311 | 7.8 | 15.6 | 0.00 | 0.00 | 0.00 | 30 | 1008.0 |
| 20260504203918 | 73 | 322 | 9.6 | 15.6 | 0.00 | 0.00 | 0.00 | 34 | 1008.1 |
| 20260504203319 | 73 | 329 | 9.6 | 16.5 | 0.00 | 0.00 | 0.00 | 31 | 1008.2 |
| 20260504202718 | 73 | 311 | 11.3 | 16.5 | 0.00 | 0.00 | 0.00 | 31 | 1008.1 |
| 20260504202118 | 73 | 297 | 7.8 | 13.9 | 0.00 | 0.00 | 0.00 | 33 | 1008.1 |
| 20260504201559 | 72 | 322 | 10.4 | 13.9 | 0.00 | 0.00 | 0.00 | 32 | 1008.3 |
| 20260504201519 | 72 | 322 | 10.4 | 13.9 | 0.00 | 0.00 | 0.00 | 32 | 1008.3 |
| 20260504200918 | 72 | 334 | 7.0 | 12.2 | 0.00 | 0.00 | 0.00 | 35 | 1008.3 |
| 20260504200318 | 72 | 327 | 8.7 | 14.8 | 0.00 | 0.00 | 0.00 | 33 | 1008.4 |
| 20260504195719 | 72 | 317 | 10.4 | 20.9 | 0.00 | 0.00 | 0.00 | 34 | 1008.6 |
| 20260504195118 | 72 | 296 | 6.1 | 15.6 | 0.00 | 0.00 | 0.00 | 38 | 1008.5 |
| 20260504194518 | 71 | 320 | 10.4 | 15.6 | 0.00 | 0.00 | 0.00 | 35 | 1008.5 |
| 20260504193918 | 71 | 332 | 7.8 | 15.6 | 0.00 | 0.00 | 0.00 | 36 | 1008.4 |
| 20260504193318 | 71 | 305 | 9.6 | 14.8 | 0.00 | 0.00 | 0.00 | 37 | 1008.6 |
| 20260504192718 | 71 | 305 | 10.4 | 15.6 | 0.00 | 0.00 | 0.00 | 37 | 1008.6 |
| 20260504192118 | 71 | 295 | 10.4 | 15.6 | 0.00 | 0.00 | 0.00 | 38 | 1008.6 |
| 20260504191519 | 70 | 299 | 8.7 | 15.6 | 0.00 | 0.00 | 0.00 | 37 | 1008.7 |
| 20260504190918 | 70 | 294 | 9.6 | 15.6 | 0.00 | 0.00 | 0.00 | 40 | 1008.8 |
| 20260504190318 | 70 | 324 | 10.4 | 15.6 | 0.00 | 0.00 | 0.00 | 38 | 1008.7 |
| 20260504185718 | 70 | 304 | 9.6 | 16.5 | 0.00 | 0.00 | 0.00 | 39 | 1008.9 |
| 20260504185119 | 69 | 298 | 8.7 | 15.6 | 0.00 | 0.00 | 0.00 | 40 | 1008.9 |
| 20260504184518 | 69 | 320 | 10.4 | 15.6 | 0.00 | 0.00 | 0.00 | 43 | 1008.9 |
| 20260504183918 | 69 | 303 | 11.3 | 15.6 | 0.00 | 0.00 | 0.00 | 41 | 1009.1 |
| 20260504183319 | 69 | 293 | 7.8 | 13.9 | 0.00 | 0.00 | 0.00 | 43 | 1009.1 |
| 20260504182718 | 69 | 288 | 7.8 | 13.9 | 0.00 | 0.00 | 0.00 | 45 | 1009.2 |
| 20260504182118 | 68 | 278 | 7.8 | 12.2 | 0.00 | 0.00 | 0.00 | 44 | 1009.3 |
| 20260504181518 | 67 | 273 | 8.7 | 12.2 | 0.00 | 0.00 | 0.00 | 45 | 1009.4 |
| 20260504180919 | 67 | 298 | 8.7 | 13.0 | 0.00 | 0.00 | 0.00 | 43 | 1009.4 |
| 20260504180317 | 67 | 326 | 6.1 | 13.0 | 0.00 | 0.00 | 0.00 | 45 | 1009.3 |
| 20260504175718 | 66 | 293 | 7.8 | 13.9 | 0.00 | 0.00 | 0.00 | 44 | 1009.5 |
| 20260504175118 | 66 | 278 | 7.0 | 12.2 | 0.00 | 0.00 | 0.00 | 44 | 1009.5 |
| 20260504174517 | 66 | 300 | 8.7 | 12.2 | 0.00 | 0.00 | 0.00 | 46 | 1009.6 |
| 20260504173918 | 65 | 309 | 7.0 | 12.2 | 0.00 | 0.00 | 0.00 | 45 | 1009.7 |
| 20260504173318 | 65 | 296 | 7.8 | 12.2 | 0.00 | 0.00 | 0.00 | 46 | 1009.6 |
| 20260504172718 | 65 | 299 | 5.2 | 10.4 | 0.00 | 0.00 | 0.00 | 46 | 1009.6 |
| 20260504172118 | 65 | 293 | 7.0 | 11.3 | 0.00 | 0.00 | 0.00 | 46 | 1009.5 |
| 20260504171517 | 65 | 303 | 7.0 | 10.4 | 0.00 | 0.00 | 0.00 | 46 | 1009.3 |
| 20260504170918 | 64 | 327 | 5.2 | 11.3 | 0.00 | 0.00 | 0.00 | 48 | 1009.5 |
| 20260504170318 | 64 | 339 | 7.8 | 11.3 | 0.00 | 0.00 | 0.00 | 47 | 1009.6 |
| 20260504160318 | 61 | 289 | 7.8 | 10.4 | 0.00 | 0.00 | 0.00 | 52 | 1009.8 |
| 20260504150318 | 58 | 310 | 0.9 | 2.6 | 0.00 | 0.00 | 0.00 | 57 | 1009.4 |
| 20260504140317 | 55 | 0 | 0.0 | 0.0 | 0.00 | 0.00 | 0.00 | 65 | 1009.2 |